Soleil Weather Down

Unfortunately, due to a number of different issues, the weather site is temporarily down. Until and if, I am able to get these issues resolved I have provided the link to the nearby Metar stations at local airports. The Radar Maps and the National Weather Service Forecast are still valid from the links on the left. Thank you for your underatanding.

Nearby METAR Reports

 

KCNI - Canton/Cherokee, Georgia, USA
Distance from station: ENE 6mi, 10km
Updated: Wed, 22-Nov-2017 5:35am EST
Clear
Clear
 Wind from NW
Wind: NW 6 mph , 9 km/h
Temperature: 50°F , 10°C
Wind Chill: 48°F , 9°C
Dew Point: 50°F , 10°C
Humidity: 100%
Barometer: 30.02 inHg , 1016.6 hPa
Clouds: Clear
Visibility: 10 miles , 16 km
2017/11/22 10:35 KCNI 221035Z AUTO 31005KT 10SM CLR 10/10 A3002 RMK AO2
KRYY - Marietta Mccolum, Georgia, USA
Distance from station: SSW 18mi, 29km
Updated: Wed, 22-Nov-2017 4:48am EST
Clear
Clear
 Wind from WNW
Wind: WNW 6 mph , 9 km/h
Temperature: 52°F , 11°C
Dew Point: 48°F , 9°C
Humidity: 88%
Barometer: 30.03 inHg , 1016.9 hPa
Clouds: Clear
Visibility: 10 miles , 16 km
2017/11/22 09:48 KRYY 220948Z AUTO 29005KT 10SM CLR 11/09 A3003 RMK AO2 SLP890 T01060089
KVPC - Cartersville, Georgia, USA
Distance from station: WSW 22mi, 35km
Updated: Wed, 22-Nov-2017 4:53am EST
Clear
Clear
 Wind from calm
Wind: Calm
Temperature: 45°F , 7°C
Dew Point: 45°F , 7°C
Humidity: 100%
Barometer: 30.05 inHg , 1017.6 hPa
Clouds: Clear
Visibility: 7 miles , 11 km
2017/11/22 09:53 KVPC 220953Z AUTO 00000KT 7SM CLR 07/07 A3005 RMK AO2 SLP168 T00720072
 
KMGE - Dobbins Afb/Mari, Georgia, USA
Distance from station: S 24mi, 39km
Updated: Wed, 22-Nov-2017 4:56am EST
Clear
Clear
 Wind from WNW
Wind: WNW 3 mph , 6 km/h
Temperature: 50°F , 10°C
Dew Point: 46°F , 8°C
Humidity: 88%
Barometer: 30.01 inHg , 1016.3 hPa
Clouds: Clear
Visibility: 10 miles , 16 km
2017/11/22 09:56 KMGE 220956Z AUTO 29003KT 10SM CLR 10/08 A3001 RMK AO2 SLP161 T00980081 $
KPDK - Peachtree/Dekalb, Georgia, USA
Distance from station: SSE 29mi, 47km
Updated: Wed, 22-Nov-2017 4:53am EST
Clear
Clear
 Wind from NW
Wind: NW 6 mph , 9 km/h
Temperature: 48°F , 9°C
Wind Chill: 45°F , 7°C
Dew Point: 46°F , 8°C
Humidity: 94%
Barometer: 30.01 inHg , 1016.3 hPa
Clouds: Clear
Visibility: 9 miles , 14 km
2017/11/22 09:53 KPDK 220953Z AUTO 32005KT 9SM CLR 09/08 A3001 RMK AO2 SLP160 T00940083
KFTY - Atlanta/Fulton, Georgia, USA
Distance from station: S 34mi, 54km
Updated: Wed, 22-Nov-2017 4:53am EST
Clear
Clear
 Wind from calm
Wind: Calm
Temperature: 50°F , 10°C
Dew Point: 50°F , 10°C
Humidity: 100%
Barometer: 30.02 inHg , 1016.6 hPa
Clouds: Clear
Visibility: 10 miles , 16 km
2017/11/22 09:53 KFTY 220953Z 00000KT 10SM CLR 10/10 A3002 RMK AO2 SLP161 T01000100
 
KPUJ - Atlanta/Paulding, Georgia, USA
Distance from station: SW 34mi, 55km
Updated: Wed, 22-Nov-2017 5:35am EST
Clear
Clear
 Wind from NNW
Wind: NNW 9 mph , 15 km/h
Temperature: 52°F , 11°C
Dew Point: 48°F , 9°C
Humidity: 88%
Barometer: 30.03 inHg , 1016.9 hPa
Clouds: Clear
Visibility: 10 miles , 16 km
2017/11/22 10:35 KPUJ 221035Z AUTO 33008KT 10SM CLR 11/09 A3003 RMK AO2
KDNN - Dalton, Georgia, USA
Distance from station: NW 37mi, 59km
Updated: Wed, 22-Nov-2017 5:35am EST
Clear
Clear
 Wind from NNW
Wind: NNW 5 mph , 7 km/h
Temperature: 43°F , 6°C
Wind Chill: 40°F , 4°C
Dew Point: 36°F , 2°C
Humidity: 76%
Barometer: 30.07 inHg , 1018.3 hPa
Clouds: Clear
Visibility: 10 miles , 16 km
2017/11/22 10:35 KDNN 221035Z AUTO 33004KT 10SM CLR 06/02 A3007 RMK AO2
KLZU - Lawrenceville, Georgia, USA
Distance from station: ESE 37mi, 59km
Updated: Wed, 22-Nov-2017 5:03am EST
Clear
Clear
 Wind from calm
Wind: Calm
Temperature: 48°F , 9°C
Dew Point: 48°F , 9°C
Humidity: 100%
Clouds: Clear
Visibility: 9 miles , 14 km
2017/11/22 10:03 KLZU 221003Z AUTO 00000KT 9SM CLR 09/09 RMK AO2 $
 
KRMG - Rome, Georgia, USA
Distance from station: W 38mi, 61km
Updated: Wed, 22-Nov-2017 4:53am EST
Clear
Clear
 Wind from calm
Wind: Calm
Temperature: 43°F , 6°C
Dew Point: 43°F , 6°C
Humidity: 100%
Barometer: 30.05 inHg , 1017.6 hPa
Clouds: Clear
Visibility: 7 miles , 11 km
2017/11/22 09:53 KRMG 220953Z AUTO 00000KT 7SM CLR 06/06 A3005 RMK AO2 SLP171 T00560056 $
KGVL - Gainesville, Georgia, USA
Distance from station: E 39mi, 62km
Updated: Wed, 22-Nov-2017 4:53am EST
Clear
Clear
 Wind from NW
Wind: NW 5 mph , 7 km/h
Temperature: 48°F , 9°C
Wind Chill: 46°F , 8°C
Dew Point: 48°F , 9°C
Humidity: 100%
Barometer: 30.01 inHg , 1016.3 hPa
Clouds: Clear
Visibility: 10 miles , 16 km
2017/11/22 09:53 KGVL 220953Z AUTO 32004KT 10SM CLR 09/09 A3001 RMK AO2 SLP156 T00940089
KATL - Atlanta, Georgia, USA
Distance from station: S 44mi, 71km
Updated: Wed, 22-Nov-2017 4:52am EST
Few Clouds
Few Clouds
 Wind from calm
Wind: Calm
Temperature: 52°F , 11°C
Dew Point: 52°F , 11°C
Humidity: 100%
Barometer: 30.01 inHg , 1016.3 hPa
Clouds: Few Clouds
Visibility: 10 miles , 16 km
Cloud details: Few Clouds 20000 ft
Few Clouds 25000 ft
2017/11/22 09:52 KATL 220952Z 00000KT 10SM FEW200 FEW250 11/11 A3001 RMK AO2 SLP160 T01110111